sensor_id;sensor_type;location;lat;lon;timestamp;pressure;altitude;pressure_sealevel;temperature;humidity
44531;BME280;30240;47.418;0.700;2022-08-14T00:01:53;99440.32592773438;;;26.01;34.79
44531;BME280;30240;47.418;0.700;2022-08-14T00:04:18;99430.65795898438;;;25.99;34.76
44531;BME280;30240;47.418;0.700;2022-08-14T00:06:43;99434.912109375;;;26.01;34.67
44531;BME280;30240;47.418;0.700;2022-08-14T00:09:08;99434.912109375;;;26.01;34.67
44531;BME280;30240;47.418;0.700;2022-08-14T00:11:33;99450.341796875;;;25.92;35.05
44531;BME280;30240;47.418;0.700;2022-08-14T00:13:59;99497.15576171875;;;25.56;35.57
44531;BME280;30240;47.418;0.700;2022-08-14T00:16:23;99515.51513671875;;;25.74;35.53
44531;BME280;30240;47.418;0.700;2022-08-14T00:18:48;99509.51538085938;;;25.82;35.86
44531;BME280;30240;47.418;0.700;2022-08-14T00:21:14;99509.51538085938;;;25.82;35.86
44531;BME280;30240;47.418;0.700;2022-08-14T00:23:39;99500.30517578125;;;25.96;35.98
44531;BME280;30240;47.418;0.700;2022-08-14T00:26:04;99516.259765625;;;25.96;35.82
44531;BME280;30240;47.418;0.700;2022-08-14T00:28:28;99558.59375;;;25.74;36.35
44531;BME280;30240;47.418;0.700;2022-08-14T00:30:55;99558.34350585938;;;25.77;38.23
44531;BME280;30240;47.418;0.700;2022-08-14T00:33:18;99558.34350585938;;;25.77;38.23
44531;BME280;30240;47.418;0.700;2022-08-14T00:35:44;99568.73168945312;;;25.54;43.74
44531;BME280;30240;47.418;0.700;2022-08-14T00:38:08;99562.89672851562;;;25.37;49.82
44531;BME280;30240;47.418;0.700;2022-08-14T00:40:34;99581.97021484375;;;24.88;54.94
44531;BME280;30240;47.418;0.700;2022-08-14T00:42:58;99582.51342773438;;;24.51;57.73
44531;BME280;30240;47.418;0.700;2022-08-14T00:45:23;99582.51342773438;;;24.51;57.73
44531;BME280;30240;47.418;0.700;2022-08-14T00:47:48;99598.583984375;;;24.51;58.35
44531;BME280;30240;47.418;0.700;2022-08-14T00:50:19;99581.54907226562;;;24.45;58.26
44531;BME280;30240;47.418;0.700;2022-08-14T00:50:20;99581.54907226562;;;24.45;58.26
44531;BME280;30240;47.418;0.700;2022-08-14T00:52:39;99595.73974609375;;;24.36;61.41
44531;BME280;30240;47.418;0.700;2022-08-14T00:55:05;99569.4580078125;;;23.74;67.53
44531;BME280;30240;47.418;0.700;2022-08-14T00:57:31;99569.4580078125;;;23.74;67.53
44531;BME280;30240;47.418;0.700;2022-08-14T00:59:54;99581.4208984375;;;23.51;70.61
44531;BME280;30240;47.418;0.700;2022-08-14T01:02:19;99602.28881835938;;;22.79;77.68
44531;BME280;30240;47.418;0.700;2022-08-14T01:04:44;99636.80419921875;;;22.49;79.27
44531;BME280;30240;47.418;0.700;2022-08-14T01:07:09;99642.74291992188;;;22.44;79.97
44531;BME280;30240;47.418;0.700;2022-08-14T01:09:34;99642.74291992188;;;22.44;79.97
44531;BME280;30240;47.418;0.700;2022-08-14T01:11:59;99684.2529296875;;;22.38;80.99
44531;BME280;30240;47.418;0.700;2022-08-14T01:14:23;99660.1806640625;;;22.47;79.84
44531;BME280;30240;47.418;0.700;2022-08-14T01:16:48;99674.51782226562;;;22.44;81.05
44531;BME280;30240;47.418;0.700;2022-08-14T01:19:14;99686.41967773438;;;22.38;81.34
44531;BME280;30240;47.418;0.700;2022-08-14T01:21:39;99676.34887695312;;;22.34;81.09
44531;BME280;30240;47.418;0.700;2022-08-14T01:24:05;99676.34887695312;;;22.34;81.09
44531;BME280;30240;47.418;0.700;2022-08-14T01:26:29;99667.61474609375;;;22.22;82.33
44531;BME280;30240;47.418;0.700;2022-08-14T01:28:55;99656.14013671875;;;22.18;82.67
44531;BME280;30240;47.418;0.700;2022-08-14T01:31:18;99652.294921875;;;22.12;82.45
44531;BME280;30240;47.418;0.700;2022-08-14T01:33:47;99648.55346679688;;;22.17;83.09
44531;BME280;30240;47.418;0.700;2022-08-14T01:36:10;99648.55346679688;;;22.17;83.09
44531;BME280;30240;47.418;0.700;2022-08-14T01:38:34;99664.64233398438;;;21.97;83.58
44531;BME280;30240;47.418;0.700;2022-08-14T01:40:59;99651.97143554688;;;21.88;84.75
44531;BME280;30240;47.418;0.700;2022-08-14T01:43:23;99661.07788085938;;;21.59;86.17
44531;BME280;30240;47.418;0.700;2022-08-14T01:45:48;99670.37353515625;;;21.61;86.83
44531;BME280;30240;47.418;0.700;2022-08-14T01:48:13;99670.37353515625;;;21.61;86.83
44531;BME280;30240;47.418;0.700;2022-08-14T01:50:38;99684.62524414062;;;21.55;87.56
44531;BME280;30240;47.418;0.700;2022-08-14T01:53:03;99694.34204101562;;;21.61;88.92
44531;BME280;30240;47.418;0.700;2022-08-14T01:55:29;99702.50244140625;;;21.5;88.26
44531;BME280;30240;47.418;0.700;2022-08-14T01:57:53;99697.021484375;;;21.44;87.72
44531;BME280;30240;47.418;0.700;2022-08-14T02:00:18;99697.021484375;;;21.44;87.72
44531;BME280;30240;47.418;0.700;2022-08-14T02:02:43;99685.107421875;;;21.44;87.84
44531;BME280;30240;47.418;0.700;2022-08-14T02:05:10;99675.50048828125;;;21.31;88.64
44531;BME280;30240;47.418;0.700;2022-08-14T02:07:33;99675.48217773438;;;21.13;89.43
44531;BME280;30240;47.418;0.700;2022-08-14T02:09:58;99681.21948242188;;;21.02;90.6
44531;BME280;30240;47.418;0.700;2022-08-14T02:12:24;99681.21948242188;;;21.02;90.6
44531;BME280;30240;47.418;0.700;2022-08-14T02:14:48;99670.6298828125;;;21.02;91.03
44531;BME280;30240;47.418;0.700;2022-08-14T02:17:13;99658.68530273438;;;20.94;91.07
44531;BME280;30240;47.418;0.700;2022-08-14T02:19:38;99634.99145507812;;;20.86;91.14
44531;BME280;30240;47.418;0.700;2022-08-14T02:22:03;99616.43676757812;;;20.77;92.21
44531;BME280;30240;47.418;0.700;2022-08-14T02:24:29;99616.43676757812;;;20.77;92.21
44531;BME280;30240;47.418;0.700;2022-08-14T02:26:55;99625.42114257812;;;20.78;92.34
44531;BME280;30240;47.418;0.700;2022-08-14T02:29:21;99630.87768554688;;;20.75;92.76
44531;BME280;30240;47.418;0.700;2022-08-14T02:31:46;99644.83642578125;;;20.78;93.31
44531;BME280;30240;47.418;0.700;2022-08-14T02:34:11;99645.25146484375;;;20.65;93.38
44531;BME280;30240;47.418;0.700;2022-08-14T02:36:33;99645.25146484375;;;20.65;93.38
44531;BME280;30240;47.418;0.700;2022-08-14T02:38:59;99639.73388671875;;;20.57;93.42
44531;BME280;30240;47.418;0.700;2022-08-14T02:41:24;99634.814453125;;;20.4;93.26
44531;BME280;30240;47.418;0.700;2022-08-14T02:43:49;99636.62719726562;;;20.37;93.27
44531;BME280;30240;47.418;0.700;2022-08-14T02:46:14;99641.65649414062;;;20.43;94.09
44531;BME280;30240;47.418;0.700;2022-08-14T02:48:41;99657.861328125;;;20.37;93.85
44531;BME280;30240;47.418;0.700;2022-08-14T02:51:06;99657.861328125;;;20.37;93.85
44531;BME280;30240;47.418;0.700;2022-08-14T02:53:30;99659.40551757812;;;20.28;93.02
44531;BME280;30240;47.418;0.700;2022-08-14T02:55:54;99658.90502929688;;;20.3;92.97
44531;BME280;30240;47.418;0.700;2022-08-14T02:58:19;99654.98657226562;;;20.26;93.03
44531;BME280;30240;47.418;0.700;2022-08-14T03:00:44;99652.87475585938;;;20.13;93.66
44531;BME280;30240;47.418;0.700;2022-08-14T03:03:09;99652.87475585938;;;20.13;93.66
44531;BME280;30240;47.418;0.700;2022-08-14T03:05:34;99647.57690429688;;;20.15;93.9
44531;BME280;30240;47.418;0.700;2022-08-14T03:08:04;99656.25;;;20.02;93.73
44531;BME280;30240;47.418;0.700;2022-08-14T03:10:24;99662.3046875;;;19.96;93.83
44531;BME280;30240;47.418;0.700;2022-08-14T03:12:49;99653.84521484375;;;20.09;94.05
44531;BME280;30240;47.418;0.700;2022-08-14T03:15:14;99653.84521484375;;;20.09;94.05
44531;BME280;30240;47.418;0.700;2022-08-14T03:17:39;99658.99047851562;;;19.96;92.57
44531;BME280;30240;47.418;0.700;2022-08-14T03:20:04;99673.91357421875;;;20.06;93.24
44531;BME280;30240;47.418;0.700;2022-08-14T03:22:29;99678.955078125;;;19.95;93.48
44531;BME280;30240;47.418;0.700;2022-08-14T03:24:54;99672.10693359375;;;19.81;92.74
44531;BME280;30240;47.418;0.700;2022-08-14T03:27:19;99672.10693359375;;;19.81;92.74
44531;BME280;30240;47.418;0.700;2022-08-14T03:29:43;99666.69311523438;;;19.82;93.33
44531;BME280;30240;47.418;0.700;2022-08-14T03:32:09;99645.25756835938;;;19.75;92.79
44531;BME280;30240;47.418;0.700;2022-08-14T03:34:33;99636.43188476562;;;19.98;94.29
44531;BME280;30240;47.418;0.700;2022-08-14T03:36:59;99650.31127929688;;;19.81;91.88
44531;BME280;30240;47.418;0.700;2022-08-14T03:39:24;99650.31127929688;;;19.81;91.88
44531;BME280;30240;47.418;0.700;2022-08-14T03:41:50;99658.65478515625;;;19.78;93.72
44531;BME280;30240;47.418;0.700;2022-08-14T03:44:14;99651.09252929688;;;20.05;95.77
44531;BME280;30240;47.418;0.700;2022-08-14T03:46:39;99655.48706054688;;;19.84;94.95
44531;BME280;30240;47.418;0.700;2022-08-14T03:49:05;99640.44799804688;;;19.85;93.87
44531;BME280;30240;47.418;0.700;2022-08-14T03:51:29;99640.44799804688;;;19.85;93.87
44531;BME280;30240;47.418;0.700;2022-08-14T03:53:55;99625.78125;;;19.89;93.77
44531;BME280;30240;47.418;0.700;2022-08-14T03:56:19;99608.04443359375;;;20.32;90.03
44531;BME280;30240;47.418;0.700;2022-08-14T03:58:46;99598.06518554688;;;20.01;94.17
44531;BME280;30240;47.418;0.700;2022-08-14T04:01:09;99596.2646484375;;;20.02;95.36
44531;BME280;30240;47.418;0.700;2022-08-14T04:03:34;99596.2646484375;;;20.02;95.36
44531;BME280;30240;47.418;0.700;2022-08-14T04:05:59;99587.24975585938;;;20.06;93.44
44531;BME280;30240;47.418;0.700;2022-08-14T04:08:24;99592.626953125;;;19.98;95.0
44531;BME280;30240;47.418;0.700;2022-08-14T04:10:49;99587.35961914062;;;19.91;95.39
44531;BME280;30240;47.418;0.700;2022-08-14T04:13:14;99566.58325195312;;;19.89;94.85
44531;BME280;30240;47.418;0.700;2022-08-14T04:15:39;99566.58325195312;;;19.89;94.85
44531;BME280;30240;47.418;0.700;2022-08-14T04:18:04;99562.32299804688;;;19.84;93.94
44531;BME280;30240;47.418;0.700;2022-08-14T04:20:29;99565.60668945312;;;19.91;94.93
44531;BME280;30240;47.418;0.700;2022-08-14T04:22:54;99551.06811523438;;;19.75;93.06
44531;BME280;30240;47.418;0.700;2022-08-14T04:25:19;99538.7939453125;;;19.77;94.29
44531;BME280;30240;47.418;0.700;2022-08-14T04:27:44;99524.06005859375;;;19.81;93.61
44531;BME280;30240;47.418;0.700;2022-08-14T04:30:09;99524.06005859375;;;19.81;93.61
44531;BME280;30240;47.418;0.700;2022-08-14T04:32:34;99526.36108398438;;;19.98;95.13
44531;BME280;30240;47.418;0.700;2022-08-14T04:34:59;99519.54956054688;;;19.91;94.05
44531;BME280;30240;47.418;0.700;2022-08-14T04:37:24;99511.46850585938;;;19.98;94.94
44531;BME280;30240;47.418;0.700;2022-08-14T04:39:49;99519.677734375;;;19.94;95.03
44531;BME280;30240;47.418;0.700;2022-08-14T04:42:13;99519.677734375;;;19.94;95.03
44531;BME280;30240;47.418;0.700;2022-08-14T04:44:39;99508.43505859375;;;19.74;94.41
44531;BME280;30240;47.418;0.700;2022-08-14T04:47:04;99507.53784179688;;;19.79;94.33
44531;BME280;30240;47.418;0.700;2022-08-14T04:49:29;99509.23461914062;;;19.78;94.79
44531;BME280;30240;47.418;0.700;2022-08-14T04:51:54;99501.6845703125;;;19.71;95.1
44531;BME280;30240;47.418;0.700;2022-08-14T04:54:18;99501.6845703125;;;19.71;95.1
44531;BME280;30240;47.418;0.700;2022-08-14T04:56:44;99501.84326171875;;;19.79;95.71
44531;BME280;30240;47.418;0.700;2022-08-14T04:59:08;99509.3505859375;;;19.56;93.24
44531;BME280;30240;47.418;0.700;2022-08-14T05:01:34;99499.27368164062;;;19.69;93.46
44531;BME280;30240;47.418;0.700;2022-08-14T05:03:58;99482.87353515625;;;19.69;92.81
44531;BME280;30240;47.418;0.700;2022-08-14T05:06:24;99482.87353515625;;;19.69;92.81
44531;BME280;30240;47.418;0.700;2022-08-14T05:08:48;99498.1201171875;;;19.6;93.67
44531;BME280;30240;47.418;0.700;2022-08-14T05:11:14;99518.81103515625;;;19.71;94.97
44531;BME280;30240;47.418;0.700;2022-08-14T05:13:38;99536.65771484375;;;19.79;95.89
44531;BME280;30240;47.418;0.700;2022-08-14T05:16:04;99539.3310546875;;;19.85;96.24
44531;BME280;30240;47.418;0.700;2022-08-14T05:18:31;99539.3310546875;;;19.85;96.24
44531;BME280;30240;47.418;0.700;2022-08-14T05:20:55;99555.18798828125;;;19.84;96.59
44531;BME280;30240;47.418;0.700;2022-08-14T05:23:21;99565.29541015625;;;19.89;96.57
44531;BME280;30240;47.418;0.700;2022-08-14T05:25:44;99558.89892578125;;;19.71;97.19
44531;BME280;30240;47.418;0.700;2022-08-14T05:28:10;99561.5478515625;;;19.57;96.75
44531;BME280;30240;47.418;0.700;2022-08-14T05:30:34;99561.5478515625;;;19.57;96.75
44531;BME280;30240;47.418;0.700;2022-08-14T05:32:58;99547.01538085938;;;19.64;96.46
44531;BME280;30240;47.418;0.700;2022-08-14T05:35:24;99510.7666015625;;;19.46;96.09
44531;BME280;30240;47.418;0.700;2022-08-14T05:37:48;99487.17041015625;;;19.54;96.36
44531;BME280;30240;47.418;0.700;2022-08-14T05:40:13;99474.0966796875;;;19.5;95.55
44531;BME280;30240;47.418;0.700;2022-08-14T05:42:38;99474.0966796875;;;19.5;95.55
44531;BME280;30240;47.418;0.700;2022-08-14T05:45:04;99452.84423828125;;;19.5;95.31
44531;BME280;30240;47.418;0.700;2022-08-14T05:47:28;99457.33032226562;;;19.64;95.36
44531;BME280;30240;47.418;0.700;2022-08-14T05:49:55;99461.90795898438;;;19.67;95.15
44531;BME280;30240;47.418;0.700;2022-08-14T05:52:18;99455.91430664062;;;19.74;95.16
44531;BME280;30240;47.418;0.700;2022-08-14T05:54:44;99456.28662109375;;;19.81;95.18
44531;BME280;30240;47.418;0.700;2022-08-14T05:57:09;99456.28662109375;;;19.81;95.18
44531;BME280;30240;47.418;0.700;2022-08-14T05:59:33;99461.13891601562;;;20.02;93.97
44531;BME280;30240;47.418;0.700;2022-08-14T06:01:58;99467.9443359375;;;20.37;94.39
44531;BME280;30240;47.418;0.700;2022-08-14T06:04:23;99467.49877929688;;;20.23;94.8
44531;BME280;30240;47.418;0.700;2022-08-14T06:06:48;99467.09594726562;;;20.36;94.32
44531;BME280;30240;47.418;0.700;2022-08-14T06:09:14;99467.09594726562;;;20.36;94.32
44531;BME280;30240;47.418;0.700;2022-08-14T06:11:38;99463.76342773438;;;20.43;94.59
44531;BME280;30240;47.418;0.700;2022-08-14T06:14:04;99465.234375;;;20.41;94.59
44531;BME280;30240;47.418;0.700;2022-08-14T06:16:28;99466.59545898438;;;20.22;94.57
44531;BME280;30240;47.418;0.700;2022-08-14T06:18:53;99459.2041015625;;;20.12;95.0
44531;BME280;30240;47.418;0.700;2022-08-14T06:21:19;99459.2041015625;;;20.12;95.0
44531;BME280;30240;47.418;0.700;2022-08-14T06:23:44;99446.50268554688;;;20.06;94.61
44531;BME280;30240;47.418;0.700;2022-08-14T06:26:09;99452.1728515625;;;19.99;95.13
44531;BME280;30240;47.418;0.700;2022-08-14T06:28:33;99463.29956054688;;;20.13;95.34
44531;BME280;30240;47.418;0.700;2022-08-14T06:30:58;99466.455078125;;;20.01;94.87
44531;BME280;30240;47.418;0.700;2022-08-14T06:33:23;99466.455078125;;;20.01;94.87
44531;BME280;30240;47.418;0.700;2022-08-14T06:35:49;99472.265625;;;20.08;96.02
44531;BME280;30240;47.418;0.700;2022-08-14T06:38:15;99461.02294921875;;;20.12;95.2
44531;BME280;30240;47.418;0.700;2022-08-14T06:40:38;99464.42260742188;;;20.11;95.44
44531;BME280;30240;47.418;0.700;2022-08-14T06:43:05;99462.21923828125;;;20.06;95.36
44531;BME280;30240;47.418;0.700;2022-08-14T06:45:29;99462.21923828125;;;20.06;95.36
44531;BME280;30240;47.418;0.700;2022-08-14T06:47:54;99460.15625;;;20.04;94.5
44531;BME280;30240;47.418;0.700;2022-08-14T06:50:21;99461.669921875;;;20.22;94.77
44531;BME280;30240;47.418;0.700;2022-08-14T06:52:44;99469.29931640625;;;20.2;94.52
44531;BME280;30240;47.418;0.700;2022-08-14T06:55:10;99475.14038085938;;;20.13;95.19
44531;BME280;30240;47.418;0.700;2022-08-14T06:57:34;99475.14038085938;;;20.13;95.19
44531;BME280;30240;47.418;0.700;2022-08-14T06:59:59;99473.10791015625;;;20.2;94.86
44531;BME280;30240;47.418;0.700;2022-08-14T07:02:23;99482.80639648438;;;20.05;94.77
44531;BME280;30240;47.418;0.700;2022-08-14T07:04:48;99482.4951171875;;;20.05;95.06
44531;BME280;30240;47.418;0.700;2022-08-14T07:07:13;99488.5009765625;;;19.95;94.0
44531;BME280;30240;47.418;0.700;2022-08-14T07:09:38;99488.5009765625;;;19.95;94.0
44531;BME280;30240;47.418;0.700;2022-08-14T07:12:04;99513.671875;;;19.98;94.78
44531;BME280;30240;47.418;0.700;2022-08-14T07:14:28;99525.6591796875;;;19.92;95.23
44531;BME280;30240;47.418;0.700;2022-08-14T07:16:54;99527.82592773438;;;20.04;94.74
44531;BME280;30240;47.418;0.700;2022-08-14T07:19:18;99521.45385742188;;;20.28;94.05
44531;BME280;30240;47.418;0.700;2022-08-14T07:21:43;99521.45385742188;;;20.28;94.05
44531;BME280;30240;47.418;0.700;2022-08-14T07:24:08;99523.876953125;;;20.28;93.85
44531;BME280;30240;47.418;0.700;2022-08-14T07:26:34;99519.61059570312;;;20.39;93.52
44531;BME280;30240;47.418;0.700;2022-08-14T07:28:58;99516.24755859375;;;20.32;92.83
44531;BME280;30240;47.418;0.700;2022-08-14T07:31:24;99503.87573242188;;;20.63;92.25
44531;BME280;30240;47.418;0.700;2022-08-14T07:33:48;99509.33837890625;;;20.48;91.83
44531;BME280;30240;47.418;0.700;2022-08-14T07:36:15;99509.33837890625;;;20.48;91.83
44531;BME280;30240;47.418;0.700;2022-08-14T07:38:39;99523.4619140625;;;20.54;91.57
44531;BME280;30240;47.418;0.700;2022-08-14T07:41:04;99522.8271484375;;;21.22;88.79
44531;BME280;30240;47.418;0.700;2022-08-14T07:43:28;99527.52075195312;;;21.3;88.87
44531;BME280;30240;47.418;0.700;2022-08-14T07:45:54;99529.82788085938;;;21.92;86.93
44531;BME280;30240;47.418;0.700;2022-08-14T07:48:18;99529.82788085938;;;21.92;86.93
44531;BME280;30240;47.418;0.700;2022-08-14T07:50:44;99533.14208984375;;;22.89;83.6
44531;BME280;30240;47.418;0.700;2022-08-14T07:53:08;99545.20263671875;;;21.02;90.24
44531;BME280;30240;47.418;0.700;2022-08-14T07:55:34;99538.70849609375;;;20.98;89.45
44531;BME280;30240;47.418;0.700;2022-08-14T07:57:59;99545.703125;;;21.31;89.99
44531;BME280;30240;47.418;0.700;2022-08-14T08:00:24;99545.703125;;;21.31;89.99
44531;BME280;30240;47.418;0.700;2022-08-14T08:02:50;99543.603515625;;;21.1;90.4
44531;BME280;30240;47.418;0.700;2022-08-14T08:05:15;99549.90844726562;;;20.94;91.18
44531;BME280;30240;47.418;0.700;2022-08-14T08:07:40;99540.78979492188;;;21.3;89.41
44531;BME280;30240;47.418;0.700;2022-08-14T08:10:06;99543.37768554688;;;21.31;89.12
44531;BME280;30240;47.418;0.700;2022-08-14T08:12:29;99543.37768554688;;;21.31;89.12
44531;BME280;30240;47.418;0.700;2022-08-14T08:14:54;99539.31274414062;;;21.41;89.27
44531;BME280;30240;47.418;0.700;2022-08-14T08:17:19;99537.46337890625;;;21.5;88.43
44531;BME280;30240;47.418;0.700;2022-08-14T08:19:44;99531.40869140625;;;21.97;86.2
44531;BME280;30240;47.418;0.700;2022-08-14T08:22:08;99532.50732421875;;;22.4;86.21
44531;BME280;30240;47.418;0.700;2022-08-14T08:24:34;99532.50732421875;;;22.4;86.21
44531;BME280;30240;47.418;0.700;2022-08-14T08:26:58;99534.2041015625;;;23.65;81.32
44531;BME280;30240;47.418;0.700;2022-08-14T08:29:23;99519.47631835938;;;23.39;80.32
44531;BME280;30240;47.418;0.700;2022-08-14T08:31:50;99515.12451171875;;;23.94;78.24
44531;BME280;30240;47.418;0.700;2022-08-14T08:34:13;99506.28662109375;;;23.13;79.2
44531;BME280;30240;47.418;0.700;2022-08-14T08:36:39;99506.28662109375;;;23.13;79.2
44531;BME280;30240;47.418;0.700;2022-08-14T08:39:03;99492.48657226562;;;24.01;77.49
44531;BME280;30240;47.418;0.700;2022-08-14T08:41:43;99494.21997070312;;;23.93;77.07
44531;BME280;30240;47.418;0.700;2022-08-14T08:44:03;99489.87426757812;;;25.85;72.35
44531;BME280;30240;47.418;0.700;2022-08-14T08:46:19;99487.56103515625;;;26.4;70.95
44531;BME280;30240;47.418;0.700;2022-08-14T08:48:45;99487.56103515625;;;26.4;70.95
44531;BME280;30240;47.418;0.700;2022-08-14T08:51:17;99491.59545898438;;;26.61;69.8
44531;BME280;30240;47.418;0.700;2022-08-14T08:51:20;99491.59545898438;;;26.61;69.8
44531;BME280;30240;47.418;0.700;2022-08-14T08:53:35;99505.15747070312;;;24.18;75.48
44531;BME280;30240;47.418;0.700;2022-08-14T08:55:59;99510.8642578125;;;23.11;80.28
44531;BME280;30240;47.418;0.700;2022-08-14T08:58:24;99530.54809570312;;;22.14;82.99
44531;BME280;30240;47.418;0.700;2022-08-14T09:00:51;99537.63427734375;;;22.33;83.22
44531;BME280;30240;47.418;0.700;2022-08-14T09:03:15;99537.63427734375;;;22.33;83.22
44531;BME280;30240;47.418;0.700;2022-08-14T09:05:52;99534.4970703125;;;22.43;81.67
44531;BME280;30240;47.418;0.700;2022-08-14T09:08:12;99541.37573242188;;;22.9;80.73
44531;BME280;30240;47.418;0.700;2022-08-14T09:10:28;99542.6025390625;;;22.82;81.71
44531;BME280;30240;47.418;0.700;2022-08-14T09:12:53;99547.74169921875;;;22.25;85.07
44531;BME280;30240;47.418;0.700;2022-08-14T09:15:19;99547.74169921875;;;22.25;85.07
44531;BME280;30240;47.418;0.700;2022-08-14T09:17:43;99542.0166015625;;;22.33;83.01
44531;BME280;30240;47.418;0.700;2022-08-14T09:20:09;99549.0966796875;;;22.82;81.84
44531;BME280;30240;47.418;0.700;2022-08-14T09:22:34;99551.53198242188;;;22.63;81.66
44531;BME280;30240;47.418;0.700;2022-08-14T09:24:59;99552.82592773438;;;22.87;82.34
44531;BME280;30240;47.418;0.700;2022-08-14T09:27:23;99552.82592773438;;;22.87;82.34
44531;BME280;30240;47.418;0.700;2022-08-14T09:29:48;99563.47045898438;;;22.25;81.08
44531;BME280;30240;47.418;0.700;2022-08-14T09:32:19;99571.78344726562;;;22.16;83.1
44531;BME280;30240;47.418;0.700;2022-08-14T09:32:21;99571.78344726562;;;22.16;83.1
44531;BME280;30240;47.418;0.700;2022-08-14T09:34:47;99576.87377929688;;;21.93;84.24
44531;BME280;30240;47.418;0.700;2022-08-14T09:37:10;99583.00170898438;;;21.92;84.74
44531;BME280;30240;47.418;0.700;2022-08-14T09:37:18;99583.00170898438;;;21.92;84.74
44531;BME280;30240;47.418;0.700;2022-08-14T09:39:36;99583.00170898438;;;21.92;84.74
44531;BME280;30240;47.418;0.700;2022-08-14T09:42:02;99585.85815429688;;;21.77;84.15
44531;BME280;30240;47.418;0.700;2022-08-14T09:42:12;99585.85815429688;;;21.77;84.15
44531;BME280;30240;47.418;0.700;2022-08-14T09:44:32;99587.03002929688;;;21.86;84.92
44531;BME280;30240;47.418;0.700;2022-08-14T09:44:40;99587.03002929688;;;21.86;84.92
44531;BME280;30240;47.418;0.700;2022-08-14T09:46:52;99582.51342773438;;;22.24;84.59
44531;BME280;30240;47.418;0.700;2022-08-14T09:49:09;99585.009765625;;;21.89;84.44
44531;BME280;30240;47.418;0.700;2022-08-14T09:51:38;99585.009765625;;;21.89;84.44
44531;BME280;30240;47.418;0.700;2022-08-14T09:54:00;99577.34985351562;;;22.03;84.15
44531;BME280;30240;47.418;0.700;2022-08-14T09:56:23;99574.93896484375;;;21.99;82.48
44531;BME280;30240;47.418;0.700;2022-08-14T09:58:48;99578.43627929688;;;22.63;83.19
44531;BME280;30240;47.418;0.700;2022-08-14T10:01:14;99585.595703125;;;22.25;83.22
44531;BME280;30240;47.418;0.700;2022-08-14T10:03:49;99585.595703125;;;22.25;83.22
44531;BME280;30240;47.418;0.700;2022-08-14T10:06:05;99590.76538085938;;;21.81;84.83
44531;BME280;30240;47.418;0.700;2022-08-14T10:08:43;99586.5478515625;;;21.82;84.41
44531;BME280;30240;47.418;0.700;2022-08-14T10:10:53;99578.45458984375;;;22.13;82.75
44531;BME280;30240;47.418;0.700;2022-08-14T10:13:21;99584.00268554688;;;22.52;81.81
44531;BME280;30240;47.418;0.700;2022-08-14T10:15:44;99584.00268554688;;;22.52;81.81
44531;BME280;30240;47.418;0.700;2022-08-14T10:18:10;99573.84643554688;;;22.66;81.26
44531;BME280;30240;47.418;0.700;2022-08-14T10:20:36;99566.74194335938;;;23.1;79.51
44531;BME280;30240;47.418;0.700;2022-08-14T10:23:12;99564.75830078125;;;24.25;75.16
44531;BME280;30240;47.418;0.700;2022-08-14T10:25:24;99561.80419921875;;;23.38;77.92
44531;BME280;30240;47.418;0.700;2022-08-14T10:27:56;99558.79516601562;;;23.66;77.57
44531;BME280;30240;47.418;0.700;2022-08-14T10:30:21;99558.79516601562;;;23.66;77.57
44531;BME280;30240;47.418;0.700;2022-08-14T10:32:42;99560.546875;;;24.86;76.07
44531;BME280;30240;47.418;0.700;2022-08-14T10:35:06;99562.07885742188;;;24.76;73.71
44531;BME280;30240;47.418;0.700;2022-08-14T10:37:37;99578.23486328125;;;23.58;75.41
44531;BME280;30240;47.418;0.700;2022-08-14T10:39:58;99580.6640625;;;23.67;75.86
44531;BME280;30240;47.418;0.700;2022-08-14T10:42:18;99580.6640625;;;23.67;75.86
44531;BME280;30240;47.418;0.700;2022-08-14T10:44:45;99590.14282226562;;;23.93;75.91
44531;BME280;30240;47.418;0.700;2022-08-14T10:47:08;99588.88549804688;;;23.98;73.12
44531;BME280;30240;47.418;0.700;2022-08-14T10:49:34;99592.60864257812;;;23.81;70.67
44531;BME280;30240;47.418;0.700;2022-08-14T10:52:00;99575.6591796875;;;24.77;69.81
44531;BME280;30240;47.418;0.700;2022-08-14T10:54:28;99575.6591796875;;;24.77;69.81
44531;BME280;30240;47.418;0.700;2022-08-14T10:56:49;99572.56469726562;;;25.66;68.09
44531;BME280;30240;47.418;0.700;2022-08-14T10:59:13;99571.95434570312;;;24.97;68.95
44531;BME280;30240;47.418;0.700;2022-08-14T11:01:38;99584.1796875;;;24.52;69.35
44531;BME280;30240;47.418;0.700;2022-08-14T11:04:04;99584.814453125;;;23.53;71.63
44531;BME280;30240;47.418;0.700;2022-08-14T11:06:29;99584.814453125;;;23.53;71.63
44531;BME280;30240;47.418;0.700;2022-08-14T11:08:54;99572.54638671875;;;23.77;70.05
44531;BME280;30240;47.418;0.700;2022-08-14T11:11:21;99573.5595703125;;;24.04;70.09
44531;BME280;30240;47.418;0.700;2022-08-14T11:13:44;99579.52880859375;;;24.56;68.68
44531;BME280;30240;47.418;0.700;2022-08-14T11:16:09;99579.6875;;;24.4;68.87
44531;BME280;30240;47.418;0.700;2022-08-14T11:18:35;99579.6875;;;24.4;68.87